»·PEaware :: N186PG KMHV-KSBD

N186PG :: KMHV-KSBD

FLIGHT INFORMATION

Flight Status: Arrived
Operator: Privately registered:
United States
More flights under this callsign
Pilot: Ryan M. (4352)
Aircraft: CIRRUS SR-20
(SR20)
More flights by this aircraft type
Origin: KMHV Mojave
United States
Destination: KSBD San Bernardino Intl
United States
More flights between these airports :: More routes between these airports
Route: VFR
File this flight plan on PilotEdge
Remarks:
Altitude:
(Current/Filed)
7,500ft
Speed:
(Current/Filed)
140kts
Departed: 17-Mar-19 08:51 AM
Arrived: 17-Mar-19 09:38 AM
Distance/Time
Traveled:
73nm/0:47
Distance/Time
To Go:
Arrived

Flight Plot

Page will automatically refresh every two minutes.

Flight plan parsing failed; only flown route is shown


Map Options




Map Legend


Flown Route
Filed Route
Departure Airport
Arrival Airport
Navaid (VOR, NDB)
Fix

Horizontal Profiles

Position Reports

Time Latitude Longitude Heading Altitude Ground
Speed
17-Mar-19 08:12 35.057282 -118.164729 69 2793ft 0kts
17-Mar-19 08:13 35.057282 -118.164729 69 2793ft 0kts
17-Mar-19 08:14 35.057282 -118.164729 69 2793ft 0kts
17-Mar-19 08:15 35.057282 -118.164729 69 2793ft 0kts
17-Mar-19 08:16 35.057282 -118.164729 69 2793ft 0kts
17-Mar-19 08:17 35.057282 -118.164729 69 2793ft 0kts
17-Mar-19 08:18 35.057282 -118.164729 69 2793ft 0kts
17-Mar-19 08:19 35.057282 -118.164729 69 2793ft 0kts
17-Mar-19 08:20 35.057282 -118.164729 69 2793ft 0kts
17-Mar-19 08:21 35.057282 -118.164729 69 2793ft 0kts
17-Mar-19 08:22 35.057282 -118.164729 69 2793ft 0kts
17-Mar-19 08:23 35.057282 -118.164728 69 2793ft 0kts
17-Mar-19 08:24 35.057282 -118.164728 69 2793ft 0kts
17-Mar-19 08:25 35.057282 -118.164728 69 2793ft 0kts
17-Mar-19 08:26 35.057282 -118.164728 69 2793ft 0kts
17-Mar-19 08:27 35.057282 -118.164728 69 2793ft 0kts
17-Mar-19 08:28 35.057282 -118.164728 69 2793ft 0kts
17-Mar-19 08:29 35.057282 -118.164729 69 2793ft 0kts
17-Mar-19 08:30 35.057282 -118.164729 69 2793ft 0kts
17-Mar-19 08:31 35.057282 -118.164729 69 2793ft 0kts
17-Mar-19 08:32 35.057282 -118.164729 69 2793ft 0kts
17-Mar-19 08:33 35.057282 -118.164729 69 2793ft 0kts
17-Mar-19 08:34 35.057282 -118.164729 69 2793ft 0kts
17-Mar-19 08:36 35.057282 -118.164729 69 2793ft 0kts
17-Mar-19 08:37 35.057282 -118.164728 69 2793ft 0kts
17-Mar-19 08:38 35.057282 -118.164729 69 2793ft 0kts
17-Mar-19 08:39 35.057282 -118.164729 69 2793ft 0kts
17-Mar-19 08:40 35.057282 -118.164729 69 2793ft 0kts
17-Mar-19 08:41 35.057282 -118.164729 69 2793ft 0kts
17-Mar-19 08:42 35.057282 -118.164728 69 2793ft 0kts
17-Mar-19 08:43 35.057636 -118.163685 89 2793ft 14kts
17-Mar-19 08:44 35.057616 -118.157527 90 2793ft 17kts
17-Mar-19 08:45 35.057601 -118.151026 90 2793ft 22kts
17-Mar-19 08:46 35.057558 -118.144096 89 2793ft 15kts
17-Mar-19 08:47 35.057596 -118.142718 57 2793ft 0kts
17-Mar-19 08:48 35.057596 -118.142718 57 2793ft 0kts
17-Mar-19 08:49 35.058229 -118.142644 0 2793ft 8kts
17-Mar-19 08:50 35.059144 -118.142991 281 2793ft 9kts
17-Mar-19 08:51 35.059473 -118.160321 275 3068ft 83kts
17-Mar-19 08:52 35.044123 -118.176781 145 3621ft 95kts
17-Mar-19 08:53 35.049585 -118.156131 355 4237ft 92kts
17-Mar-19 08:54 35.044161 -118.178149 200 4867ft 102kts
17-Mar-19 08:54 35.022019 -118.188379 193 5433ft 100kts
17-Mar-19 08:55 34.993315 -118.193135 183 5911ft 110kts
17-Mar-19 08:57 34.957725 -118.197169 181 6365ft 110kts
17-Mar-19 08:57 34.932202 -118.199295 181 6587ft 110kts
17-Mar-19 08:58 34.901796 -118.202048 180 6837ft 110kts
17-Mar-19 08:59 34.871526 -118.204033 159 7196ft 98kts
17-Mar-19 09:00 34.844283 -118.188778 152 7506ft 125kts
17-Mar-19 09:01 34.810158 -118.168942 152 7501ft 142kts
17-Mar-19 09:02 34.775536 -118.148589 151 8001ft 110kts
17-Mar-19 09:03 34.748792 -118.132585 151 8594ft 106kts
17-Mar-19 09:04 34.724510 -118.118117 150 9294ft 95kts
17-Mar-19 09:05 34.698091 -118.102407 152 9505ft 123kts
17-Mar-19 09:06 34.665447 -118.084068 152 9501ft 133kts
17-Mar-19 09:07 34.632818 -118.062908 124 9501ft 133kts
17-Mar-19 09:08 34.617297 -118.021623 113 9489ft 136kts
17-Mar-19 09:09 34.602662 -117.979632 112 9491ft 135kts
17-Mar-19 09:10 34.588266 -117.937415 112 9490ft 135kts
17-Mar-19 09:11 34.573919 -117.895180 112 9491ft 136kts
17-Mar-19 09:12 34.559323 -117.852166 112 9491ft 138kts
17-Mar-19 09:13 34.544644 -117.808829 112 9489ft 137kts
17-Mar-19 09:14 34.530758 -117.766416 112 9489ft 135kts
17-Mar-19 09:15 34.516538 -117.723977 112 9490ft 138kts
17-Mar-19 09:16 34.501790 -117.680288 111 9488ft 136kts
17-Mar-19 09:17 34.487342 -117.638356 111 9489ft 136kts
17-Mar-19 09:18 34.472745 -117.594736 113 9489ft 138kts
17-Mar-19 09:19 34.457875 -117.551611 111 9490ft 134kts
17-Mar-19 09:20 34.444020 -117.511145 112 9499ft 128kts
17-Mar-19 09:21 34.430320 -117.470566 112 9257ft 140kts
17-Mar-19 09:22 34.415163 -117.426981 111 8450ft 135kts
17-Mar-19 09:23 34.401265 -117.385816 111 7634ft 129kts
17-Mar-19 09:24 34.386776 -117.343897 112 7500ft 138kts
17-Mar-19 09:25 34.361586 -117.313085 160 7502ft 140kts
17-Mar-19 09:26 34.321827 -117.300618 164 6994ft 154kts
17-Mar-19 09:27 34.282982 -117.288848 163 5988ft 136kts
17-Mar-19 09:28 34.247473 -117.289882 184 5330ft 122kts
17-Mar-19 09:29 34.219189 -117.280634 127 4783ft 105kts
17-Mar-19 09:30 34.207876 -117.254099 103 4408ft 79kts
17-Mar-19 09:31 34.191100 -117.244080 200 3737ft 124kts
17-Mar-19 09:32 34.153803 -117.247594 164 2784ft 141kts
17-Mar-19 09:33 34.122438 -117.234048 215 1985ft 113kts
17-Mar-19 09:34 34.106133 -117.258483 239 1708ft 87kts
17-Mar-19 09:35 34.088780 -117.267711 107 1577ft 88kts
17-Mar-19 09:36 34.093190 -117.242186 66 1159ft 59kts
17-Mar-19 09:37 34.095813 -117.236065 318 1159ft 4kts
17-Mar-19 09:38 34.097461 -117.233790 68 1159ft 20kts
17-Mar-19 09:39 34.099187 -117.228016 66 1159ft 12kts
17-Mar-19 09:40 34.101359 -117.225051 352 1159ft 11kts
17-Mar-19 09:41 34.102175 -117.224722 74 1159ft 0kts
17-Mar-19 09:42 34.102175 -117.224722 74 1159ft 0kts
17-Mar-19 09:43 34.102175 -117.224722 74 1159ft 0kts
17-Mar-19 09:44 34.102175 -117.224722 74 1159ft 0kts

Navigation Log

Ident Type
Flight plan parsing failed, navigation log unavailable